createdAt,value
2023-02-06T00:02:13.826Z,24.02
2023-02-06T00:04:42.327Z,26.70
2023-02-06T00:07:10.972Z,24.50
2023-02-06T00:09:39.242Z,23.67
2023-02-06T00:12:07.918Z,24.55
2023-02-06T00:14:36.281Z,24.20
2023-02-06T00:17:04.920Z,24.27
2023-02-06T00:19:33.275Z,25.08
2023-02-06T00:22:02.230Z,23.70
2023-02-06T00:24:30.803Z,22.45
2023-02-06T00:26:59.719Z,24.10
2023-02-06T00:29:28.017Z,22.27
2023-02-06T00:31:56.976Z,22.13
2023-02-06T00:34:25.536Z,21.38
2023-02-06T00:36:54.335Z,20.17
2023-02-06T00:39:22.937Z,20.55
2023-02-06T00:41:52.194Z,19.88
2023-02-06T00:44:21.823Z,20.17
2023-02-06T00:46:53.295Z,20.58
2023-02-06T00:49:22.047Z,19.45
2023-02-06T00:51:52.747Z,21.30
2023-02-06T00:54:21.114Z,22.25
2023-02-06T00:56:49.728Z,26.52
2023-02-06T00:59:18.108Z,25.80
2023-02-06T01:01:46.808Z,24.83
2023-02-06T01:04:15.140Z,24.85
2023-02-06T01:06:43.830Z,23.88
2023-02-06T01:09:12.213Z,24.60
2023-02-06T01:11:41.126Z,22.98
2023-02-06T01:14:09.787Z,22.95
2023-02-06T01:16:38.745Z,23.63
2023-02-06T01:19:07.327Z,22.75
2023-02-06T01:21:37.235Z,22.08
2023-02-06T01:24:05.960Z,23.08
2023-02-06T01:26:34.671Z,22.65
2023-02-06T01:29:04.257Z,22.63
2023-02-06T01:31:33.458Z,21.30
2023-02-06T01:34:02.101Z,20.67
2023-02-06T01:36:32.113Z,21.00
2023-02-06T01:39:00.496Z,20.80
2023-02-06T01:41:30.432Z,22.08
2023-02-06T01:44:17.968Z,21.42
2023-02-06T01:46:52.115Z,20.30
2023-02-06T01:49:31.246Z,21.05
2023-02-06T01:52:14.390Z,20.75
2023-02-06T01:54:51.354Z,20.85
2023-02-06T01:57:21.302Z,20.92
2023-02-06T01:59:54.900Z,21.88
2023-02-06T02:02:27.686Z,21.60
2023-02-06T02:04:59.384Z,21.48
2023-02-06T02:07:33.294Z,22.77
2023-02-06T02:10:01.781Z,20.90
2023-02-06T02:12:31.422Z,23.15
2023-02-06T02:15:00.620Z,23.20
2023-02-06T02:17:44.598Z,21.30
2023-02-06T02:20:15.933Z,23.08
2023-02-06T02:22:57.335Z,22.45
2023-02-06T02:25:53.784Z,23.90
2023-02-06T02:28:34.723Z,22.85
2023-02-06T02:31:20.645Z,21.60
2023-02-06T02:34:21.073Z,22.60
2023-02-06T02:37:17.913Z,23.25
2023-02-06T02:40:08.063Z,22.83
2023-02-06T02:42:43.565Z,23.27
2023-02-06T02:45:26.305Z,23.00
2023-02-06T02:50:31.466Z,21.48
2023-02-06T02:53:02.440Z,23.40
2023-02-06T02:55:32.048Z,24.17
2023-02-06T02:58:10.821Z,23.13
2023-02-06T03:00:50.225Z,23.67
2023-02-06T03:03:23.402Z,24.05
2023-02-06T03:06:04.943Z,23.13
2023-02-06T03:08:59.011Z,22.73
2023-02-06T03:11:27.814Z,22.67
2023-02-06T03:14:01.543Z,23.58
2023-02-06T03:16:42.640Z,25.25
2023-02-06T03:19:32.877Z,26.40
2023-02-06T03:22:03.742Z,26.02
2023-02-06T03:24:39.036Z,27.40
2023-02-06T03:27:18.277Z,26.23
2023-02-06T03:29:49.636Z,27.08
2023-02-06T03:32:30.011Z,25.58
2023-02-06T03:35:13.243Z,25.95
2023-02-06T03:37:42.399Z,25.33
2023-02-06T03:40:12.469Z,26.63
2023-02-06T03:42:45.942Z,26.13
2023-02-06T03:45:28.960Z,26.08
2023-02-06T03:48:03.822Z,24.35
2023-02-06T03:50:34.942Z,26.73
2023-02-06T03:53:04.904Z,26.45
2023-02-06T03:55:33.354Z,25.95
2023-02-06T03:58:14.194Z,26.52
2023-02-06T04:00:44.604Z,25.15
2023-02-06T04:06:00.812Z,24.58
2023-02-06T04:08:29.436Z,27.00
2023-02-06T04:10:58.293Z,31.50
2023-02-06T04:13:26.918Z,30.95
2023-02-06T04:15:56.483Z,31.05
2023-02-06T04:18:25.301Z,32.30
2023-02-06T04:20:53.875Z,32.17
2023-02-06T04:23:22.663Z,30.98
2023-02-06T04:25:50.870Z,30.75
2023-02-06T04:28:19.472Z,31.17
2023-02-06T04:30:48.251Z,28.70
2023-02-06T04:33:17.144Z,30.30
2023-02-06T04:35:45.448Z,28.98
2023-02-06T04:38:14.102Z,29.40
2023-02-06T04:40:42.735Z,31.42
2023-02-06T04:43:11.546Z,31.48
2023-02-06T04:45:40.149Z,30.42
2023-02-06T04:48:09.037Z,30.33
2023-02-06T04:50:37.406Z,31.35
2023-02-06T04:53:06.153Z,30.73
2023-02-06T04:55:36.025Z,30.40
2023-02-06T04:58:04.901Z,32.65
2023-02-06T05:00:33.762Z,30.67
2023-02-06T05:03:02.418Z,31.90
2023-02-06T05:05:31.164Z,32.67
2023-02-06T05:07:59.975Z,33.75
2023-02-06T05:10:28.406Z,33.58
2023-02-06T05:12:58.729Z,33.25
2023-02-06T05:15:28.937Z,33.42
2023-02-06T05:17:57.620Z,31.58
2023-02-06T05:20:25.974Z,33.38
2023-02-06T05:22:55.023Z,37.92
2023-02-06T05:25:23.808Z,46.10
2023-02-06T05:27:52.723Z,39.92
2023-02-06T05:30:21.083Z,41.33
2023-02-06T05:32:49.874Z,41.67
2023-02-06T05:35:18.303Z,40.63
2023-02-06T05:37:46.918Z,37.80
2023-02-06T05:40:15.614Z,38.08
2023-02-06T05:42:44.305Z,36.33
2023-02-06T05:45:13.265Z,35.55
2023-02-06T05:47:42.138Z,34.22
2023-02-06T05:50:10.728Z,38.13
2023-02-06T05:52:39.453Z,38.20
2023-02-06T05:55:09.010Z,38.00
2023-02-06T05:57:37.844Z,37.92
2023-02-06T06:00:06.891Z,37.80
2023-02-06T06:02:41.113Z,41.70
2023-02-06T06:05:09.567Z,38.65
2023-02-06T06:07:38.368Z,39.53
2023-02-06T06:10:07.695Z,41.33
2023-02-06T06:12:36.652Z,42.15
2023-02-06T06:15:05.447Z,40.10
2023-02-06T06:17:34.657Z,39.08
2023-02-06T06:20:03.202Z,40.42
2023-02-06T06:22:32.098Z,38.75
2023-02-06T06:25:00.964Z,39.05
2023-02-06T06:27:30.085Z,40.15
2023-02-06T06:29:58.547Z,38.28
2023-02-06T06:32:27.250Z,39.25
2023-02-06T06:34:55.495Z,34.90
2023-02-06T06:37:24.743Z,32.25
2023-02-06T06:39:53.198Z,30.42
2023-02-06T06:42:22.003Z,31.33
2023-02-06T06:44:50.367Z,30.95
2023-02-06T06:47:19.095Z,30.70
2023-02-06T06:49:47.843Z,33.17
2023-02-06T06:52:24.965Z,35.95
2023-02-06T06:54:54.507Z,35.80
2023-02-06T06:57:23.548Z,34.40
2023-02-06T06:59:52.658Z,36.45
2023-02-06T07:02:21.347Z,40.33
2023-02-06T07:04:50.104Z,39.50
2023-02-06T07:07:18.722Z,37.90
2023-02-06T07:09:47.455Z,37.78
2023-02-06T07:12:16.545Z,35.45
2023-02-06T07:14:44.808Z,35.72
2023-02-06T07:17:13.878Z,37.17
2023-02-06T07:19:42.395Z,35.72
2023-02-06T07:22:11.032Z,33.50
2023-02-06T07:24:39.327Z,32.97
2023-02-06T07:27:07.911Z,31.13
2023-02-06T07:29:36.237Z,30.67
2023-02-06T07:32:06.082Z,33.15
2023-02-06T07:34:35.301Z,42.80
2023-02-06T07:37:04.808Z,48.45
2023-02-06T07:39:33.579Z,49.75
2023-02-06T07:42:02.157Z,44.70
2023-02-06T07:44:43.943Z,43.42
2023-02-06T07:47:15.666Z,42.38
2023-02-06T07:49:44.048Z,48.38
2023-02-06T07:52:12.723Z,48.40
2023-02-06T07:54:40.934Z,41.33
2023-02-06T07:57:09.697Z,39.45
2023-02-06T07:59:37.934Z,36.50
2023-02-06T08:02:07.248Z,32.80
2023-02-06T08:04:36.349Z,33.45
2023-02-06T08:07:06.502Z,33.38
2023-02-06T08:09:34.853Z,35.90
2023-02-06T08:12:03.455Z,34.58
2023-02-06T08:14:32.732Z,33.17
2023-02-06T08:17:01.487Z,35.10
2023-02-06T08:19:29.874Z,35.10
2023-02-06T08:21:58.538Z,36.22
2023-02-06T08:24:26.935Z,31.40
2023-02-06T08:26:56.058Z,32.08
2023-02-06T08:29:24.932Z,32.78
2023-02-06T08:31:53.954Z,30.95
2023-02-06T08:34:22.379Z,31.38
2023-02-06T08:36:51.067Z,30.52
2023-02-06T08:39:19.662Z,28.25
2023-02-06T08:41:48.481Z,28.15
2023-02-06T08:44:18.517Z,29.65
2023-02-06T08:46:49.659Z,35.95
2023-02-06T08:49:22.824Z,37.40
2023-02-06T08:51:51.528Z,36.35
2023-02-06T08:54:22.367Z,31.85
2023-02-06T08:56:52.284Z,30.20
2023-02-06T08:59:20.898Z,30.75
2023-02-06T09:01:49.888Z,30.48
2023-02-06T09:04:19.419Z,31.08
2023-02-06T09:06:49.279Z,30.52
2023-02-06T09:09:18.465Z,30.55
2023-02-06T09:11:47.748Z,31.27
2023-02-06T09:14:18.222Z,30.85
2023-02-06T09:16:46.840Z,29.85
2023-02-06T09:19:15.215Z,26.02
2023-02-06T09:21:44.018Z,22.52
2023-02-06T09:24:12.475Z,21.23
2023-02-06T09:26:58.591Z,19.52
2023-02-06T09:29:29.713Z,17.95
2023-02-06T09:31:59.668Z,18.73
2023-02-06T09:34:28.517Z,18.05
2023-02-06T09:36:58.001Z,17.83
2023-02-06T09:39:26.833Z,17.67
2023-02-06T09:42:03.426Z,17.45
2023-02-06T09:44:37.062Z,18.30
2023-02-06T09:47:24.747Z,18.25
2023-02-06T09:49:59.846Z,17.15
2023-02-06T09:53:06.055Z,16.83
2023-02-06T09:55:43.170Z,16.58
2023-02-06T09:58:50.845Z,17.03
2023-02-06T10:01:28.226Z,15.85
2023-02-06T10:04:02.218Z,15.95
2023-02-06T10:06:56.131Z,15.30
2023-02-06T10:09:38.431Z,17.15
2023-02-06T10:12:15.207Z,15.38
2023-02-06T10:14:46.632Z,11.43
2023-02-06T10:17:45.293Z,14.33
2023-02-06T10:20:21.502Z,12.02
2023-02-06T10:23:19.772Z,14.75
2023-02-06T10:25:59.626Z,13.85
2023-02-06T10:28:31.018Z,16.05
2023-02-06T10:31:13.174Z,13.88
2023-02-06T10:33:57.048Z,13.30
2023-02-06T10:36:30.052Z,13.10
2023-02-06T10:39:15.021Z,14.02
2023-02-06T10:41:59.647Z,18.77
2023-02-06T10:45:18.945Z,21.77
2023-02-06T10:47:51.581Z,20.42
2023-02-06T10:50:36.621Z,16.35
2023-02-06T10:53:15.103Z,13.88
2023-02-06T10:55:53.206Z,11.05
2023-02-06T10:58:33.542Z,14.07
2023-02-06T11:01:11.322Z,12.98
2023-02-06T11:04:04.697Z,12.20
2023-02-06T11:06:33.611Z,15.80
2023-02-06T11:09:02.220Z,15.85
2023-02-06T11:11:35.659Z,16.85
2023-02-06T11:14:19.461Z,15.20
2023-02-06T11:16:47.846Z,17.08
2023-02-06T11:19:33.884Z,14.20
2023-02-06T11:22:05.930Z,16.60
2023-02-06T11:24:36.405Z,17.08
2023-02-06T11:27:18.742Z,15.95
2023-02-06T11:29:52.087Z,17.85
2023-02-06T11:32:52.820Z,16.95
2023-02-06T11:35:40.148Z,18.58
2023-02-06T11:38:27.944Z,18.42
2023-02-06T11:41:03.156Z,17.58
2023-02-06T11:43:44.592Z,17.05
2023-02-06T11:46:17.732Z,14.23
2023-02-06T11:49:00.892Z,12.52
2023-02-06T11:52:00.614Z,13.23
2023-02-06T11:54:32.264Z,13.38
2023-02-06T11:59:34.735Z,11.02
2023-02-06T12:02:25.937Z,11.93
2023-02-06T12:05:03.285Z,11.90
2023-02-06T12:07:39.920Z,11.50
2023-02-06T12:10:17.529Z,10.52
2023-02-06T12:12:50.967Z,12.65
2023-02-06T12:15:46.908Z,12.63
2023-02-06T12:18:19.037Z,11.20
2023-02-06T12:21:04.971Z,13.82
2023-02-06T12:24:00.170Z,12.38
2023-02-06T12:26:32.588Z,13.35
2023-02-06T12:29:15.648Z,10.40
2023-02-06T12:32:11.340Z,19.10
2023-02-06T12:34:54.567Z,11.75
2023-02-06T12:37:44.297Z,15.48
2023-02-06T12:40:48.450Z,14.57
2023-02-06T12:43:18.575Z,13.98
2023-02-06T12:46:10.541Z,9.88
2023-02-06T12:49:13.236Z,8.57
2023-02-06T12:51:55.371Z,12.07
2023-02-06T12:54:30.325Z,9.68
2023-02-06T12:57:20.684Z,11.23
2023-02-06T12:59:59.938Z,10.30
2023-02-06T13:02:47.496Z,9.98
2023-02-06T13:05:25.262Z,8.57
2023-02-06T13:07:57.529Z,8.95
2023-02-06T13:10:26.642Z,9.90
2023-02-06T13:12:57.744Z,10.07
2023-02-06T13:15:37.016Z,9.90
2023-02-06T13:18:41.786Z,12.43
2023-02-06T13:21:30.959Z,8.95
2023-02-06T13:24:02.972Z,9.30
2023-02-06T13:26:53.371Z,11.98
2023-02-06T13:29:27.383Z,8.90
2023-02-06T13:32:32.433Z,9.43
2023-02-06T13:35:13.368Z,8.48
2023-02-06T13:37:48.288Z,9.00
2023-02-06T13:40:46.290Z,8.13
2023-02-06T13:43:21.623Z,8.50
2023-02-06T13:46:02.255Z,8.85
2023-02-06T13:48:58.968Z,8.00
2023-02-06T13:51:50.533Z,7.63
2023-02-06T13:54:54.211Z,7.25
2023-02-06T13:57:39.155Z,7.97
2023-02-06T14:00:20.014Z,8.90
2023-02-06T14:03:06.566Z,7.97
2023-02-06T14:05:53.817Z,7.45
2023-02-06T14:08:44.014Z,8.85
2023-02-06T14:11:20.731Z,9.55
2023-02-06T14:14:04.799Z,7.88
2023-02-06T14:16:52.640Z,9.05
2023-02-06T14:19:47.196Z,9.40
2023-02-06T14:22:34.449Z,9.15
2023-02-06T14:25:40.647Z,9.18
2023-02-06T14:28:47.454Z,9.20
2023-02-06T14:31:36.224Z,9.25
2023-02-06T14:34:52.005Z,10.50
2023-02-06T14:37:30.162Z,8.20
2023-02-06T14:40:04.504Z,8.18
2023-02-06T14:42:40.021Z,7.38
2023-02-06T14:45:31.904Z,9.10
2023-02-06T14:48:07.054Z,9.60
2023-02-06T14:50:40.652Z,8.30
2023-02-06T14:53:23.638Z,9.15
2023-02-06T14:55:52.834Z,8.57
2023-02-06T14:58:31.291Z,9.20
2023-02-06T15:01:15.454Z,6.75
2023-02-06T15:03:45.614Z,7.50
2023-02-06T15:06:31.813Z,10.55
2023-02-06T15:09:01.470Z,14.85
2023-02-06T15:11:33.088Z,15.80
2023-02-06T15:14:06.121Z,14.20
2023-02-06T15:16:48.501Z,17.63
2023-02-06T15:19:25.833Z,16.90
2023-02-06T15:22:01.764Z,17.77
2023-02-06T15:24:46.436Z,19.42
2023-02-06T15:27:24.005Z,22.10
2023-02-06T15:29:53.250Z,22.55
2023-02-06T15:32:29.836Z,19.30
2023-02-06T15:35:02.718Z,19.60
2023-02-06T15:37:34.254Z,22.15
2023-02-06T15:40:19.143Z,23.05
2023-02-06T15:42:49.549Z,27.73
2023-02-06T15:45:23.168Z,20.75
2023-02-06T15:48:05.254Z,20.60
2023-02-06T15:50:41.852Z,22.67
2023-02-06T15:53:21.598Z,19.70
2023-02-06T15:55:57.095Z,26.95
2023-02-06T15:58:26.588Z,25.17
2023-02-06T16:00:58.673Z,25.67
2023-02-06T16:03:29.732Z,29.65
2023-02-06T16:05:59.820Z,26.25
2023-02-06T16:08:35.845Z,23.90
2023-02-06T16:11:28.560Z,28.38
2023-02-06T16:13:57.982Z,38.85
2023-02-06T16:16:28.194Z,42.08
2023-02-06T16:18:58.737Z,38.63
2023-02-06T16:21:30.339Z,37.10
2023-02-06T16:24:07.241Z,38.72
2023-02-06T16:26:44.496Z,37.67
2023-02-06T16:29:13.218Z,35.58
2023-02-06T16:31:44.612Z,52.65
2023-02-06T16:34:29.377Z,91.57
2023-02-06T16:36:58.274Z,46.60
2023-02-06T16:39:26.704Z,58.05
2023-02-06T16:41:55.482Z,47.45
2023-02-06T16:44:36.071Z,58.58
2023-02-06T16:47:18.549Z,49.28
2023-02-06T16:49:48.599Z,48.53
2023-02-06T16:52:23.273Z,47.53
2023-02-06T16:54:55.902Z,40.33
2023-02-06T16:57:36.848Z,35.00
2023-02-06T17:00:09.700Z,30.27
2023-02-06T17:02:39.630Z,26.13
2023-02-06T17:05:08.235Z,26.98
2023-02-06T17:07:38.145Z,26.48
2023-02-06T17:10:07.208Z,31.17
2023-02-06T17:12:36.564Z,27.88
2023-02-06T17:15:05.819Z,24.10
2023-02-06T17:17:36.143Z,25.67
2023-02-06T17:20:04.963Z,27.15
2023-02-06T17:22:33.717Z,29.60
2023-02-06T17:25:02.238Z,30.33
2023-02-06T17:27:31.239Z,31.70
2023-02-06T17:29:59.777Z,31.90
2023-02-06T17:32:28.443Z,31.55
2023-02-06T17:34:58.755Z,40.55
2023-02-06T17:37:27.477Z,43.38
2023-02-06T17:39:55.765Z,44.20
2023-02-06T17:42:25.935Z,46.10
2023-02-06T17:44:54.300Z,43.13
2023-02-06T17:47:23.046Z,39.72
2023-02-06T17:49:51.711Z,39.72
2023-02-06T17:52:21.831Z,35.33
2023-02-06T17:54:53.167Z,37.42
2023-02-06T17:57:24.517Z,36.00
2023-02-06T17:59:53.783Z,37.30
2023-02-06T18:02:22.685Z,33.95
2023-02-06T18:04:53.472Z,33.15
2023-02-06T18:07:22.347Z,32.38
2023-02-06T18:09:50.842Z,29.40
2023-02-06T18:12:19.894Z,27.95
2023-02-06T18:14:50.436Z,22.02
2023-02-06T18:17:24.920Z,21.10
2023-02-06T18:20:00.135Z,22.10
2023-02-06T18:22:42.764Z,25.50
2023-02-06T18:25:16.892Z,25.52
2023-02-06T18:27:47.247Z,26.45
2023-02-06T18:30:17.410Z,26.65
2023-02-06T18:32:46.244Z,33.50
2023-02-06T18:35:20.366Z,37.97
2023-02-06T18:37:50.282Z,41.22
2023-02-06T18:40:19.042Z,40.97
2023-02-06T18:42:51.143Z,33.90
2023-02-06T18:45:21.317Z,36.58
2023-02-06T18:47:53.420Z,37.05
2023-02-06T18:52:51.924Z,39.17
2023-02-06T18:55:20.760Z,42.22
2023-02-06T18:57:53.529Z,26.15
2023-02-06T19:00:24.061Z,25.75
2023-02-06T19:02:59.392Z,33.67
2023-02-06T19:05:30.900Z,38.58
2023-02-06T19:08:01.269Z,40.35
2023-02-06T19:10:29.831Z,35.22
2023-02-06T19:12:59.358Z,37.28
2023-02-06T19:15:30.361Z,37.08
2023-02-06T19:17:59.644Z,38.17
2023-02-06T19:20:30.674Z,38.00
2023-02-06T19:22:59.729Z,32.60
2023-02-06T19:25:28.460Z,32.13
2023-02-06T19:27:57.521Z,33.28
2023-02-06T19:30:28.316Z,32.22
2023-02-06T19:33:01.016Z,32.70
2023-02-06T19:39:41.129Z,32.45
2023-02-06T19:42:21.083Z,35.83
2023-02-06T19:44:59.345Z,32.30
2023-02-06T19:47:28.074Z,33.88
2023-02-06T19:49:58.297Z,31.17
2023-02-06T19:52:31.758Z,28.55
2023-02-06T19:55:01.538Z,28.85
2023-02-06T19:57:36.802Z,28.13
2023-02-06T20:00:24.328Z,29.95
2023-02-06T20:02:59.136Z,30.67
2023-02-06T20:05:28.257Z,27.63
2023-02-06T20:07:56.864Z,21.80
2023-02-06T20:10:26.152Z,22.30
2023-02-06T20:12:59.061Z,42.35
2023-02-06T20:15:29.689Z,48.25
2023-02-06T20:17:59.249Z,42.50
2023-02-06T20:20:28.074Z,41.50
2023-02-06T20:22:56.532Z,39.00
2023-02-06T20:25:26.696Z,38.17
2023-02-06T20:27:55.495Z,38.60
2023-02-06T20:30:24.595Z,36.38
2023-02-06T20:32:53.345Z,39.88
2023-02-06T20:35:27.078Z,34.88
2023-02-06T20:38:03.268Z,40.10
2023-02-06T20:40:40.033Z,40.85
2023-02-06T20:43:11.513Z,41.22
2023-02-06T20:48:17.865Z,38.47
2023-02-06T20:50:46.545Z,40.40
2023-02-06T20:53:16.081Z,47.35
2023-02-06T20:55:47.828Z,45.00
2023-02-06T20:58:16.483Z,45.00
2023-02-06T21:00:51.464Z,44.25
2023-02-06T21:03:36.363Z,41.30
2023-02-06T21:06:16.313Z,46.92
2023-02-06T21:09:08.040Z,47.47
2023-02-06T21:11:44.064Z,44.38
2023-02-06T21:14:17.899Z,37.35
2023-02-06T21:17:19.587Z,27.30
2023-02-06T21:19:51.257Z,23.35
2023-02-06T21:22:21.936Z,23.83
2023-02-06T21:27:48.015Z,19.00
2023-02-06T21:30:21.580Z,20.08
2023-02-06T21:32:51.225Z,20.90
2023-02-06T21:35:19.513Z,19.42
2023-02-06T21:37:48.452Z,17.88
2023-02-06T21:40:17.280Z,30.05
2023-02-06T21:42:46.053Z,29.52
2023-02-06T21:45:14.855Z,30.15
2023-02-06T21:47:46.331Z,33.05
2023-02-06T21:50:17.150Z,35.47
2023-02-06T21:52:48.788Z,37.97
2023-02-06T21:55:17.580Z,36.88
2023-02-06T21:57:46.146Z,40.97
2023-02-06T22:00:15.917Z,39.97
2023-02-06T22:02:59.163Z,35.45
2023-02-06T22:05:29.379Z,35.78
2023-02-06T22:07:58.920Z,35.47
2023-02-06T22:10:27.736Z,35.03
2023-02-06T22:13:05.986Z,37.95
2023-02-06T22:15:35.476Z,39.40
2023-02-06T22:18:04.010Z,36.90
2023-02-06T22:20:32.786Z,37.95
2023-02-06T22:23:01.161Z,34.13
2023-02-06T22:25:29.991Z,40.85
2023-02-06T22:28:00.680Z,40.47
2023-02-06T22:30:29.518Z,37.83
2023-02-06T22:32:57.873Z,47.25
2023-02-06T22:35:26.710Z,49.05
2023-02-06T22:37:54.994Z,48.22
2023-02-06T22:40:23.727Z,44.70
2023-02-06T22:42:52.124Z,48.72
2023-02-06T22:45:22.003Z,47.22
2023-02-06T22:47:53.518Z,48.50
2023-02-06T22:50:25.424Z,45.65
2023-02-06T22:53:12.299Z,46.38
2023-02-06T22:55:59.932Z,44.20
2023-02-06T22:58:28.263Z,50.22
2023-02-06T23:01:03.012Z,70.03
2023-02-06T23:03:31.457Z,72.80
2023-02-06T23:06:05.517Z,59.67
2023-02-06T23:08:36.975Z,50.92
2023-02-06T23:13:44.799Z,41.17
2023-02-06T23:16:19.800Z,37.22
2023-02-06T23:18:48.709Z,39.45
2023-02-06T23:21:23.367Z,41.10
2023-02-06T23:23:57.044Z,41.83
2023-02-06T23:26:32.963Z,40.33
2023-02-06T23:29:07.375Z,35.05
2023-02-06T23:31:37.148Z,39.03
2023-02-06T23:34:05.693Z,42.17
2023-02-06T23:36:34.910Z,42.67
2023-02-06T23:39:04.719Z,44.13
2023-02-06T23:41:34.073Z,43.53
2023-02-06T23:44:05.992Z,44.63
2023-02-06T23:46:37.534Z,45.03
2023-02-06T23:49:06.873Z,47.57
2023-02-06T23:51:36.720Z,51.75
2023-02-06T23:54:07.531Z,48.92
2023-02-06T23:56:37.164Z,48.58
2023-02-06T23:59:06.056Z,49.33
